sensor_id;sensor_type;location;lat;lon;timestamp;pressure;altitude;pressure_sealevel;temperature;humidity
9110;BME280;4590;51.462;6.692;2023-07-31T07:29:51;100611.63;;;18.68;77.70
9110;BME280;4590;51.462;6.692;2023-07-31T07:45:16;100616.53;;;18.74;77.23
9110;BME280;4590;51.462;6.692;2023-07-31T09:07:51;100585.22;;;18.62;77.53
9110;BME280;4590;51.462;6.692;2023-07-31T17:36:32;100184.56;;;19.60;76.50
9110;BME280;4590;51.462;6.692;2023-07-31T17:39:00;100198.22;;;19.69;76.14
9110;BME280;4590;51.462;6.692;2023-07-31T17:41:33;100183.00;;;19.63;76.08
9110;BME280;4590;51.462;6.692;2023-07-31T17:49:41;100173.28;;;19.50;76.76
9110;BME280;4590;51.462;6.692;2023-07-31T18:08:21;100146.34;;;19.35;77.96
9110;BME280;4590;51.462;6.692;2023-07-31T18:10:48;100153.44;;;19.28;77.96
9110;BME280;4590;51.462;6.692;2023-07-31T18:13:17;100149.47;;;19.30;77.98
9110;BME280;4590;51.462;6.692;2023-07-31T18:15:46;100159.47;;;19.31;77.47
9110;BME280;4590;51.462;6.692;2023-07-31T18:18:14;100146.31;;;19.31;78.03
9110;BME280;4590;51.462;6.692;2023-07-31T18:20:42;100142.19;;;19.21;78.27
9110;BME280;4590;51.462;6.692;2023-07-31T18:23:08;100133.91;;;19.28;78.15
9110;BME280;4590;51.462;6.692;2023-07-31T18:25:35;100127.97;;;19.30;78.01
9110;BME280;4590;51.462;6.692;2023-07-31T18:28:00;100135.16;;;19.31;78.10
9110;BME280;4590;51.462;6.692;2023-07-31T18:30:28;100119.53;;;19.26;78.41
9110;BME280;4590;51.462;6.692;2023-07-31T18:35:28;100122.75;;;19.28;78.15
9110;BME280;4590;51.462;6.692;2023-07-31T18:41:20;100114.28;;;19.21;79.05
9110;BME280;4590;51.462;6.692;2023-07-31T18:43:47;100111.19;;;19.26;78.46
9110;BME280;4590;51.462;6.692;2023-07-31T19:01:45;100062.53;;;19.24;78.68
9110;BME280;4590;51.462;6.692;2023-07-31T19:04:37;100058.88;;;19.16;79.38
9110;BME280;4590;51.462;6.692;2023-07-31T19:11:03;100049.75;;;19.19;78.88
9110;BME280;4590;51.462;6.692;2023-07-31T19:25:52;100026.16;;;19.13;79.29
9110;BME280;4590;51.462;6.692;2023-07-31T20:20:16;100014.63;;;19.15;80.12
9110;BME280;4590;51.462;6.692;2023-07-31T20:25:50;100002.34;;;19.23;80.02
9110;BME280;4590;51.462;6.692;2023-07-31T20:28:19;100007.97;;;19.26;79.95
9110;BME280;4590;51.462;6.692;2023-07-31T20:30:50;99999.22;;;19.28;79.92
9110;BME280;4590;51.462;6.692;2023-07-31T20:33:17;100006.03;;;19.31;79.55
9110;BME280;4590;51.462;6.692;2023-07-31T20:35:43;100009.25;;;19.33;79.71
9110;BME280;4590;51.462;6.692;2023-07-31T20:38:14;100004.84;;;19.32;79.98
9110;BME280;4590;51.462;6.692;2023-07-31T20:40:40;100001.31;;;19.35;79.71
9110;BME280;4590;51.462;6.692;2023-07-31T20:43:08;99989.34;;;19.34;79.63
9110;BME280;4590;51.462;6.692;2023-07-31T20:53:26;99953.91;;;19.38;79.81
9110;BME280;4590;51.462;6.692;2023-07-31T20:55:51;99960.28;;;19.39;79.34
9110;BME280;4590;51.462;6.692;2023-07-31T20:58:17;99951.09;;;19.38;79.74
9110;BME280;4590;51.462;6.692;2023-07-31T21:00:42;99956.69;;;19.38;79.42
9110;BME280;4590;51.462;6.692;2023-07-31T21:03:10;99941.56;;;19.39;79.56
9110;BME280;4590;51.462;6.692;2023-07-31T21:05:36;99928.03;;;19.41;79.55
9110;BME280;4590;51.462;6.692;2023-07-31T21:08:02;99926.41;;;19.40;79.53
9110;BME280;4590;51.462;6.692;2023-07-31T21:10:28;99924.00;;;19.39;79.76
9110;BME280;4590;51.462;6.692;2023-07-31T21:12:54;99923.22;;;19.38;79.53
9110;BME280;4590;51.462;6.692;2023-07-31T21:15:20;99914.84;;;19.38;79.31
9110;BME280;4590;51.462;6.692;2023-07-31T21:17:45;99910.06;;;19.39;79.28
9110;BME280;4590;51.462;6.692;2023-07-31T21:20:12;99900.09;;;19.38;79.40
9110;BME280;4590;51.462;6.692;2023-07-31T21:22:42;99907.66;;;19.37;79.64
9110;BME280;4590;51.462;6.692;2023-07-31T21:25:07;99903.69;;;19.38;79.28
9110;BME280;4590;51.462;6.692;2023-07-31T21:27:33;99903.28;;;19.40;79.42
9110;BME280;4590;51.462;6.692;2023-07-31T21:29:59;99898.91;;;19.39;79.58
9110;BME280;4590;51.462;6.692;2023-07-31T21:32:25;99908.06;;;19.39;79.39
9110;BME280;4590;51.462;6.692;2023-07-31T21:34:50;99887.75;;;19.39;79.26
9110;BME280;4590;51.462;6.692;2023-07-31T21:37:16;99888.94;;;19.38;79.42
9110;BME280;4590;51.462;6.692;2023-07-31T21:39:42;99901.28;;;19.37;79.15
9110;BME280;4590;51.462;6.692;2023-07-31T21:42:08;99899.69;;;19.36;79.46
9110;BME280;4590;51.462;6.692;2023-07-31T21:44:34;99895.69;;;19.37;79.45
9110;BME280;4590;51.462;6.692;2023-07-31T21:46:59;99884.88;;;19.28;79.85
9110;BME280;4590;51.462;6.692;2023-07-31T22:11:43;99847.63;;;19.06;78.92
9110;BME280;4590;51.462;6.692;2023-07-31T22:14:09;99831.53;;;18.89;79.22
9110;BME280;4590;51.462;6.692;2023-07-31T22:26:56;99834.41;;;18.96;78.92
9110;BME280;4590;51.462;6.692;2023-07-31T22:37:07;99798.97;;;18.97;79.13
9110;BME280;4590;51.462;6.692;2023-07-31T22:39:33;99794.19;;;18.97;78.87
9110;BME280;4590;51.462;6.692;2023-07-31T22:42:00;99774.66;;;18.93;79.20
9110;BME280;4590;51.462;6.692;2023-07-31T22:44:27;99782.25;;;18.97;79.10
9110;BME280;4590;51.462;6.692;2023-07-31T22:46:52;99779.47;;;18.97;78.80
9110;BME280;4590;51.462;6.692;2023-07-31T22:49:21;99765.13;;;18.98;79.41
9110;BME280;4590;51.462;6.692;2023-07-31T22:59:32;99750.00;;;18.99;79.14
9110;BME280;4590;51.462;6.692;2023-07-31T23:01:58;99750.81;;;19.00;79.45
9110;BME280;4590;51.462;6.692;2023-07-31T23:04:23;99732.09;;;19.00;79.41
9110;BME280;4590;51.462;6.692;2023-07-31T23:06:49;99723.34;;;19.02;79.69
9110;BME280;4590;51.462;6.692;2023-07-31T23:09:14;99727.75;;;19.03;79.15
9110;BME280;4590;51.462;6.692;2023-07-31T23:16:50;99711.00;;;19.03;79.52
9110;BME280;4590;51.462;6.692;2023-07-31T23:19:16;99718.56;;;19.02;79.36
9110;BME280;4590;51.462;6.692;2023-07-31T23:21:43;99724.16;;;19.02;79.37
9110;BME280;4590;51.462;6.692;2023-07-31T23:24:08;99711.81;;;19.03;79.35
9110;BME280;4590;51.462;6.692;2023-07-31T23:34:19;99715.69;;;18.88;79.72
9110;BME280;4590;51.462;6.692;2023-07-31T23:36:47;99705.31;;;18.85;79.48
9110;BME280;4590;51.462;6.692;2023-07-31T23:52:32;99692.50;;;18.77;79.91
